Time;durP1;ratioP1;P1;durP2;ratioP2;P2;SDS_P1;SDS_P2;PMS_P1;PMS_P2;Temp;Humidity;BMP_temperature;BMP_pressure;BME280_temperature;BME280_humidity;BME280_pressure;Samples;Min_cycle;Max_cycle;Signal;HPM_P1;HPM_P2
2022/05/20 00:02:22;;;;;;;5.88;1.00;;;;;;;21.83;41.03;98268.22;10082228;29;20706;-76
2022/05/20 00:07:44;;;;;;;3.63;0.88;;;;;;;21.50;42.85;98254.34;10069512;29;20080;-77
2022/05/20 00:13:05;;;;;;;3.75;1.00;;;;;;;21.39;44.04;98262.53;10024819;29;20054;-76
2022/05/20 00:18:25;;;;;;;3.60;1.02;;;;;;;21.07;45.84;98241.56;10042464;29;20045;-77
2022/05/20 00:23:46;;;;;;;5.40;0.60;;;;;;;20.53;49.58;98212.72;10069045;29;20068;-77
2022/05/20 00:29:07;;;;;;;3.55;0.43;;;;;;;20.33;51.57;98209.13;10074392;29;20049;-75
2022/05/20 00:34:27;;;;;;;3.90;1.52;;;;;;;20.32;52.51;98221.84;10088907;29;20109;-75
2022/05/20 00:39:48;;;;;;;1.35;0.50;;;;;;;20.19;53.70;98212.19;10089900;29;20045;-75
2022/05/20 00:45:10;;;;;;;0.60;0.40;;;;;;;20.13;54.03;98214.78;10089234;29;20485;-75
2022/05/20 00:50:30;;;;;;;2.72;0.30;;;;;;;20.11;54.82;98206.19;10076082;29;20045;-75
2022/05/20 00:55:52;;;;;;;1.33;0.40;;;;;;;20.24;54.90;98217.31;10089822;29;20048;-76
2022/05/20 01:01:12;;;;;;;4.40;0.50;;;;;;;20.42;55.30;98236.38;10088463;29;20052;-75
2022/05/20 01:06:33;;;;;;;0.60;0.35;;;;;;;20.54;54.81;98240.41;10088720;29;20507;-75
2022/05/20 01:11:54;;;;;;;2.55;0.40;;;;;;;20.67;54.93;98241.59;10062316;29;20105;-78
2022/05/20 01:17:15;;;;;;;0.90;0.32;;;;;;;20.75;54.86;98226.94;10088483;29;20514;-75
2022/05/20 01:22:58;;;;;;;1.20;0.50;;;;;;;20.76;55.06;98217.81;10087344;29;20049;-75
2022/05/20 01:28:21;;;;;;;2.15;0.40;;;;;;;20.79;54.71;98212.94;10071641;29;20052;-77
2022/05/20 01:33:51;;;;;;;1.63;0.43;;;;;;;20.77;54.42;98216.44;10078307;29;20053;-75
2022/05/20 01:39:13;;;;;;;1.30;0.30;;;;;;;20.78;54.66;98217.16;10062385;29;20041;-75
2022/05/20 01:44:39;;;;;;;2.28;0.43;;;;;;;20.79;54.21;98222.16;10073538;29;20488;-75
2022/05/20 01:50:05;;;;;;;0.65;0.40;;;;;;;20.77;54.03;98239.13;10060829;29;20507;-75
2022/05/20 01:55:36;;;;;;;1.10;0.47;;;;;;;20.70;54.76;98234.59;10063985;29;20053;-77
2022/05/20 02:00:59;;;;;;;4.38;0.55;;;;;;;20.52;54.34;98237.50;10070977;29;20049;-75
2022/05/20 02:06:24;;;;;;;1.88;0.40;;;;;;;20.41;54.71;98229.28;10061119;29;20045;-75
2022/05/20 02:11:47;;;;;;;2.38;0.40;;;;;;;20.31;54.78;98232.47;10052783;29;20045;-77
2022/05/20 02:17:13;;;;;;;3.03;0.40;;;;;;;20.27;54.96;98235.88;10056235;29;20045;-76
2022/05/20 02:22:37;;;;;;;2.30;0.77;;;;;;;20.25;55.13;98227.28;10071782;29;20083;-76
2022/05/20 02:27:59;;;;;;;;;;;;;;;20.24;55.87;98231.50;10060658;29;20072;-75
2022/05/20 02:33:22;;;;;;;2.03;0.30;;;;;;;20.11;55.61;98231.69;10067611;29;19931;-75
2022/05/20 02:38:43;;;;;;;1.60;0.30;;;;;;;20.11;55.84;98231.69;10053664;29;20085;-74
2022/05/20 02:44:04;;;;;;;1.50;0.40;;;;;;;20.13;55.62;98241.00;10069231;29;20065;-75
2022/05/20 02:49:25;;;;;;;2.03;0.30;;;;;;;20.15;55.52;98229.72;10109741;29;20042;-75
2022/05/20 02:54:46;;;;;;;1.10;0.40;;;;;;;20.07;55.79;98235.09;10097748;29;20048;-75
2022/05/20 03:05:47;;;;;;;3.35;0.40;;;;;;;19.94;56.18;98244.50;10097333;29;20048;-75
2022/05/20 03:11:07;;;;;;;1.50;0.35;;;;;;;19.90;56.24;98250.75;10070656;29;20605;-75
2022/05/20 03:16:37;;;;;;;1.75;0.60;;;;;;;19.84;56.57;98261.13;10100489;29;20059;-78
2022/05/20 03:22:02;;;;;;;3.33;0.47;;;;;;;19.82;56.66;98263.88;10076515;29;20079;-75
2022/05/20 03:27:23;;;;;;;3.85;0.60;;;;;;;19.76;57.00;98270.03;10048888;29;20484;-78
2022/05/20 03:32:43;;;;;;;2.40;0.50;;;;;;;19.76;56.79;98280.63;10081036;29;20714;-78
2022/05/20 03:38:04;;;;;;;1.35;0.45;;;;;;;19.75;57.29;98290.50;10053363;29;20133;-78
2022/05/20 03:43:26;;;;;;;1.58;0.60;;;;;;;19.76;57.30;98287.00;10079410;29;20064;-79
2022/05/20 03:48:46;;;;;;;2.70;0.70;;;;;;;19.79;57.65;98296.34;10072253;29;20083;-78
2022/05/20 03:54:07;;;;;;;2.03;0.70;;;;;;;19.83;57.80;98291.56;10048565;29;20049;-78
2022/05/20 03:59:28;;;;;;;2.20;0.70;;;;;;;19.86;57.67;98306.53;10058254;29;20056;-78
2022/05/20 04:04:50;;;;;;;2.80;0.90;;;;;;;19.91;57.89;98313.81;10059481;29;20042;-80
2022/05/20 04:10:11;;;;;;;1.67;0.68;;;;;;;19.92;57.89;98318.84;10062463;29;20077;-75
2022/05/20 04:15:32;;;;;;;1.42;0.65;;;;;;;20.05;57.77;98322.13;10068834;29;20428;-77
2022/05/20 04:20:53;;;;;;;2.67;0.82;;;;;;;20.10;57.78;98330.16;10071560;29;20488;-77
2022/05/20 04:26:14;;;;;;;1.73;0.60;;;;;;;20.14;57.82;98327.47;10095441;29;20413;-77
2022/05/20 04:31:35;;;;;;;2.65;0.70;;;;;;;20.19;57.67;98331.94;10043795;29;20045;-77
2022/05/20 04:36:56;;;;;;;3.92;0.90;;;;;;;20.18;57.66;98338.97;10064200;29;20056;-76
2022/05/20 04:47:56;;;;;;;1.92;0.90;;;;;;;20.12;57.93;98341.56;10094480;29;20041;-78
2022/05/20 04:58:57;;;;;;;3.92;0.82;;;;;;;20.23;57.86;98351.91;10080680;29;20068;-78
2022/05/20 05:04:18;;;;;;;1.73;0.80;;;;;;;20.45;58.19;98362.69;10070561;29;20409;-78
2022/05/20 05:09:39;;;;;;;3.13;0.80;;;;;;;20.70;57.77;98362.25;10051981;29;20041;-77
2022/05/20 05:14:59;;;;;;;3.50;0.93;;;;;;;20.94;57.41;98365.28;10033545;29;20485;-75
2022/05/20 05:20:23;;;;;;;1.40;0.50;;;;;;;21.33;57.08;98367.41;10052784;29;20049;-75
2022/05/20 05:25:44;;;;;;;4.03;0.90;;;;;;;21.68;56.24;98371.41;10062269;29;20049;-77
2022/05/20 05:31:05;;;;;;;2.22;0.80;;;;;;;21.99;55.69;98393.75;10062268;29;20051;-77
2022/05/20 05:36:26;;;;;;;3.38;0.80;;;;;;;22.56;54.70;98386.31;10074970;29;20045;-78
2022/05/20 05:41:47;;;;;;;1.67;0.85;;;;;;;23.31;53.95;98390.66;10061675;29;20061;-80
2022/05/20 05:47:08;;;;;;;3.50;0.70;;;;;;;24.18;52.56;98397.91;10061394;29;20168;-80
2022/05/20 05:52:28;;;;;;;2.90;0.68;;;;;;;25.35;51.49;98402.66;10074092;29;20075;-81
2022/05/20 05:57:49;;;;;;;4.05;0.60;;;;;;;26.51;49.53;98401.81;10038140;29;20043;-78
2022/05/20 06:03:10;;;;;;;0.88;0.55;;;;;;;27.56;46.81;98412.47;10035398;29;20057;-75
2022/05/20 06:08:31;;;;;;;3.60;0.68;;;;;;;28.27;45.31;98398.06;10035531;29;20049;-77
2022/05/20 06:13:54;;;;;;;1.77;0.70;;;;;;;29.22;43.28;98390.03;10035377;29;20049;-75
2022/05/20 06:19:14;;;;;;;1.58;0.63;;;;;;;29.91;40.68;98395.25;10034657;29;20477;-76
2022/05/20 06:24:35;;;;;;;1.20;0.50;;;;;;;30.57;39.61;98396.69;10021716;29;20546;-75
2022/05/20 06:29:56;;;;;;;2.63;0.77;;;;;;;30.67;36.61;98405.31;10047391;29;20049;-75
2022/05/20 06:40:56;;;;;;;4.15;1.27;;;;;;;31.97;34.63;98409.81;10036657;29;20121;-76
2022/05/20 06:46:18;;;;;;;1.47;0.70;;;;;;;32.63;33.15;98399.16;10034107;29;20064;-76
2022/05/20 06:51:54;;;;;;;1.85;0.60;;;;;;;33.41;32.71;98398.28;10048496;29;20055;-78
2022/05/20 06:57:19;;;;;;;2.33;0.75;;;;;;;34.07;30.36;98395.88;10034234;29;20053;-78
2022/05/20 07:02:40;;;;;;;1.75;0.60;;;;;;;34.45;30.10;98397.41;10033465;29;20110;-78
2022/05/20 07:08:03;;;;;;;3.30;0.77;;;;;;;35.02;28.90;98404.34;10020851;29;20389;-79
2022/05/20 07:13:24;;;;;;;2.28;0.57;;;;;;;35.71;27.78;98394.16;10045716;29;20049;-81
2022/05/20 07:18:46;;;;;;;1.23;0.40;;;;;;;36.30;26.49;98393.50;10033271;29;20073;-80
2022/05/20 07:24:07;;;;;;;4.40;0.60;;;;;;;40.04;24.63;98386.31;10045694;29;20378;-84
2022/05/20 07:29:28;;;;;;;1.15;0.50;;;;;;;42.97;20.30;98406.34;10032681;29;20046;-84
2022/05/20 07:34:52;;;;;;;1.02;0.40;;;;;;;45.85;17.05;98417.38;10046073;29;20124;-84
2022/05/20 07:40:13;;;;;;;2.95;0.40;;;;;;;49.03;13.60;98400.50;10057457;29;20090;-85
2022/05/20 07:45:35;;;;;;;1.85;0.38;;;;;;;49.68;11.64;98407.13;10070403;29;20055;-84
2022/05/20 07:51:07;;;;;;;3.90;0.40;;;;;;;47.34;11.94;98382.06;10059454;29;20041;-83
2022/05/20 07:56:43;;;;;;;1.60;0.40;;;;;;;47.46;11.68;98371.59;10057863;29;20056;-84
2022/05/20 08:02:10;;;;;;;0.80;0.30;;;;;;;47.83;11.25;98360.75;10048890;29;20492;-85
2022/05/20 08:07:41;;;;;;;1.20;0.40;;;;;;;45.78;11.20;98366.25;10057626;29;20088;-85
2022/05/20 08:13:02;;;;;;;2.10;0.93;;;;;;;43.97;12.61;98357.47;10069795;29;20057;-85
2022/05/20 08:18:24;;;;;;;3.03;0.47;;;;;;;46.20;12.51;98357.50;10057289;29;20075;-83
2022/05/20 08:23:46;;;;;;;1.63;0.50;;;;;;;47.10;11.13;98347.63;10057042;29;20160;-85
2022/05/20 08:29:07;;;;;;;1.70;0.45;;;;;;;46.37;11.87;98368.91;10056897;29;20049;-82
2022/05/20 08:34:34;;;;;;;1.38;0.40;;;;;;;47.68;11.75;98356.72;10070412;29;20057;-85
2022/05/20 08:39:57;;;;;;;1.27;0.40;;;;;;;49.45;10.53;98357.84;10056907;29;20396;-81
2022/05/20 08:45:20;;;;;;;1.13;0.30;;;;;;;50.26;9.59;98356.31;10057016;29;20049;-77
2022/05/20 08:50:52;;;;;;;2.35;0.40;;;;;;;52.83;8.32;98361.38;10077125;29;20049;-77
2022/05/20 08:56:19;;;;;;;1.58;0.40;;;;;;;53.50;7.39;98338.53;10063837;29;20203;-79
2022/05/20 09:01:42;;;;;;;1.83;0.30;;;;;;;52.02;8.09;98342.88;10077431;29;20063;-79
2022/05/20 09:07:06;;;;;;;2.25;0.50;;;;;;;52.78;7.44;98336.50;10048837;29;20053;-78
2022/05/20 09:12:36;;;;;;;1.02;0.30;;;;;;;49.79;8.60;98322.38;10063902;29;20061;-78
2022/05/20 09:18:28;;;;;;;1.27;0.40;;;;;;;52.73;7.46;98319.91;10076013;29;20136;-78
2022/05/20 09:24:01;;;;;;;0.80;0.30;;;;;;;53.78;6.46;98305.16;10075842;29;20132;-78
2022/05/20 09:30:06;;;;;;;1.30;0.40;;;;;;;52.65;6.80;98312.44;10079289;29;20060;-76
2022/05/20 09:35:38;;;;;;;0.65;0.30;;;;;;;53.31;7.21;98307.50;10060331;29;20061;-78
2022/05/20 09:41:16;;;;;;;1.50;0.40;;;;;;;51.35;7.50;98298.50;10034229;29;20097;-76
2022/05/20 09:46:51;;;;;;;0.85;0.40;;;;;;;46.78;10.34;98298.88;10049144;29;20133;-76
2022/05/20 09:52:39;;;;;;;1.35;0.40;;;;;;;46.72;10.81;98278.66;10048534;29;20457;-76
2022/05/20 09:58:17;;;;;;;1.67;0.40;;;;;;;45.56;11.43;98277.03;10043891;29;20401;-77
2022/05/20 10:03:47;;;;;;;0.85;0.38;;;;;;;46.69;11.40;98280.34;10057196;29;20452;-79
2022/05/20 10:09:42;;;;;;;0.88;0.45;;;;;;;48.37;10.85;98272.34;10043947;29;20041;-79
2022/05/20 10:15:40;;;;;;;1.17;0.40;;;;;;;50.54;9.71;98270.06;10057764;29;20057;-79
2022/05/20 10:21:43;;;;;;;2.15;0.63;;;;;;;51.93;8.04;98264.91;10059350;29;20140;-79
2022/05/20 10:27:18;;;;;;;1.38;0.40;;;;;;;50.83;8.95;98256.38;10067848;29;20072;-81
2022/05/20 10:33:04;;;;;;;1.85;0.40;;;;;;;51.27;9.03;98254.63;10041929;29;20057;-82
2022/05/20 10:39:01;;;;;;;3.25;0.60;;;;;;;51.37;8.47;98241.09;10046108;29;20056;-81
2022/05/20 10:51:29;;;;;;;2.80;0.70;;;;;;;49.82;9.55;98225.03;10027306;29;20065;-81
2022/05/20 10:57:02;;;;;;;1.70;0.60;;;;;;;48.36;9.45;98216.97;10034771;29;20061;-77
2022/05/20 11:02:55;;;;;;;3.15;0.80;;;;;;;45.33;11.57;98207.78;10039571;29;20045;-76
2022/05/20 11:08:31;;;;;;;1.30;0.70;;;;;;;42.79;13.98;98199.63;10043634;29;20508;-75
2022/05/20 11:14:06;;;;;;;3.97;1.00;;;;;;;41.03;15.29;98189.66;10026216;29;20106;-77
2022/05/20 11:19:39;;;;;;;3.92;0.90;;;;;;;40.28;16.80;98170.44;10026072;29;20042;-78
2022/05/20 11:25:03;;;;;;;1.67;0.90;;;;;;;39.22;17.19;98166.22;10033273;29;20128;-78
2022/05/20 11:30:32;;;;;;;2.95;0.95;;;;;;;37.64;19.06;98161.91;10033143;29;20053;-78
2022/05/20 11:36:05;;;;;;;3.17;1.02;;;;;;;37.47;20.11;98147.19;10025603;29;20073;-77
2022/05/20 11:41:46;;;;;;;4.30;1.08;;;;;;;38.34;19.13;98137.56;10033502;29;20504;-77
2022/05/20 11:47:42;;;;;;;3.45;1.08;;;;;;;38.16;19.67;98123.63;10052384;29;20128;-78
2022/05/20 11:53:14;;;;;;;2.95;1.45;;;;;;;37.40;20.11;98116.16;10058726;29;20052;-78
2022/05/20 11:59:09;;;;;;;2.85;1.30;;;;;;;35.98;21.73;98124.88;10071109;29;20048;-78
2022/05/20 12:04:30;;;;;;;1.15;0.88;;;;;;;35.48;22.26;98101.53;9958083;29;20050;-79
2022/05/20 12:09:56;;;;;;;3.40;0.90;;;;;;;36.11;22.57;98099.81;9928956;29;20054;-78
2022/05/20 12:15:20;;;;;;;2.30;1.10;;;;;;;36.09;22.51;98096.94;9929957;29;20038;-77
2022/05/20 12:26:44;;;;;;;4.25;1.33;;;;;;;35.59;22.69;98066.44;9931727;29;20093;-79
2022/05/20 12:32:15;;;;;;;3.83;0.90;;;;;;;35.46;23.19;98058.06;9939946;29;20054;-80
2022/05/20 12:37:43;;;;;;;2.45;1.25;;;;;;;35.14;23.48;98053.84;10051507;29;20403;-79
2022/05/20 12:43:04;;;;;;;3.97;1.60;;;;;;;35.19;23.42;98049.34;10052789;29;20061;-78
2022/05/20 12:48:29;;;;;;;3.65;1.35;;;;;;;34.62;23.86;98035.53;10095514;29;20041;-80
2022/05/20 12:53:52;;;;;;;4.22;1.50;;;;;;;34.46;24.70;98018.56;10087963;29;20049;-79
2022/05/20 12:59:18;;;;;;;;;;;;;;;34.42;24.78;98007.75;10100447;29;20041;-79
2022/05/20 13:04:59;;;;;;;4.22;1.45;;;;;;;33.94;25.00;97992.19;10063539;29;19927;-81
2022/05/20 13:10:22;;;;;;;3.22;1.42;;;;;;;33.74;25.56;97993.31;10099673;29;20469;-86
2022/05/20 13:15:44;;;;;;;4.78;1.50;;;;;;;33.79;25.69;97986.69;10100513;29;20065;-84
2022/05/20 13:21:15;;;;;;;2.70;1.25;;;;;;;33.85;25.77;97974.94;10086722;29;20115;-83
2022/05/20 13:26:36;;;;;;;5.72;1.80;;;;;;;33.22;25.97;97961.78;10086851;29;20057;-81
2022/05/20 13:32:20;;;;;;;1.73;1.10;;;;;;;33.62;26.34;97953.06;10086310;29;20048;-83
2022/05/20 13:37:49;;;;;;;2.33;1.15;;;;;;;34.15;25.88;97955.50;10096644;29;20053;-84
2022/05/20 13:43:21;;;;;;;2.72;1.13;;;;;;;33.77;25.05;97940.38;10085848;29;20065;-81
2022/05/20 13:54:30;;;;;;;1.90;1.15;;;;;;;33.39;24.81;97915.88;10086825;29;20052;-78
2022/05/20 13:59:53;;;;;;;1.88;1.00;;;;;;;33.32;25.60;97905.91;10060968;29;20453;-78
2022/05/20 14:05:20;;;;;;;5.03;1.10;;;;;;;33.24;25.66;97898.09;10061639;29;20392;-79
2022/05/20 14:10:42;;;;;;;2.72;1.10;;;;;;;33.00;25.70;97889.91;10085394;29;20502;-76
2022/05/20 14:16:24;;;;;;;3.30;1.10;;;;;;;33.15;26.19;97867.94;10085033;29;20560;-77
2022/05/20 14:21:45;;;;;;;4.53;1.30;;;;;;;33.43;25.63;97869.53;10098729;29;20057;-79
2022/05/20 14:27:26;;;;;;;2.00;1.10;;;;;;;32.86;26.26;97858.41;10084583;29;20048;-79
2022/05/20 14:32:49;;;;;;;4.10;1.23;;;;;;;32.28;26.95;97847.13;10084197;29;20041;-79
2022/05/20 14:38:12;;;;;;;4.63;1.38;;;;;;;32.10;27.24;97845.28;10097574;29;20479;-78
2022/05/20 14:43:38;;;;;;;2.95;1.25;;;;;;;31.98;27.53;97833.22;10083915;29;20053;-78
2022/05/20 14:48:58;;;;;;;4.30;1.58;;;;;;;31.80;28.53;97814.03;10091933;29;20053;-79
2022/05/20 14:54:38;;;;;;;3.33;1.55;;;;;;;31.28;29.03;97798.91;10074016;29;20041;-83
2022/05/20 15:00:24;;;;;;;;;;;;;;;30.92;29.47;97794.31;10066341;29;20041;-82
2022/05/20 15:05:47;;;;;;;6.03;1.73;;;;;;;30.70;30.26;97787.38;10071492;29;19972;-81
2022/05/20 15:11:14;;;;;;;4.18;1.90;;;;;;;30.74;30.69;97769.34;10068699;29;20559;-82
2022/05/20 15:16:42;;;;;;;3.45;1.67;;;;;;;30.73;30.61;97751.34;10079308;29;20049;-81
2022/05/20 15:22:21;;;;;;;2.80;1.40;;;;;;;30.96;30.78;97740.22;10103281;29;20061;-83
2022/05/20 15:27:51;;;;;;;3.10;1.50;;;;;;;31.03;30.35;97753.09;10088509;29;20847;-83
2022/05/20 15:39:08;;;;;;;3.85;1.50;;;;;;;31.14;29.80;97727.00;10045544;29;20511;-79
2022/05/20 15:44:29;;;;;;;4.85;1.40;;;;;;;31.16;29.40;97718.31;10044528;29;20422;-78
2022/05/20 15:49:50;;;;;;;3.25;1.42;;;;;;;31.05;29.86;97712.00;10032550;29;20081;-78
2022/05/20 15:55:34;;;;;;;5.32;1.83;;;;;;;30.96;29.98;97685.47;10044797;29;20049;-79
2022/05/20 16:00:55;;;;;;;2.65;1.40;;;;;;;30.88;29.95;97679.81;10044385;29;20045;-79
2022/05/20 16:06:23;;;;;;;2.97;1.48;;;;;;;30.92;30.22;97662.47;10045010;29;20452;-78
2022/05/20 16:11:45;;;;;;;4.03;1.40;;;;;;;30.87;30.00;97660.41;10044887;29;20060;-77
2022/05/20 16:17:06;;;;;;;2.42;1.40;;;;;;;30.65;30.46;97649.91;10044489;29;20102;-78
2022/05/20 16:22:28;;;;;;;3.65;1.63;;;;;;;30.42;30.74;97644.44;10044164;29;20097;-78
2022/05/20 16:27:50;;;;;;;5.95;2.50;;;;;;;30.44;30.94;97635.75;10043986;29;20053;-78
2022/05/20 16:33:11;;;;;;;2.75;1.77;;;;;;;30.46;31.28;97641.47;10031537;29;20052;-82
2022/05/20 16:38:32;;;;;;;3.97;1.70;;;;;;;30.29;31.46;97625.16;10043759;29;20049;-78
2022/05/20 16:43:53;;;;;;;4.87;1.70;;;;;;;30.26;32.27;97615.13;10031018;29;20398;-79
2022/05/20 16:49:18;;;;;;;3.63;1.85;;;;;;;30.16;32.75;97604.47;10043748;29;20137;-81
2022/05/20 16:54:40;;;;;;;7.47;1.70;;;;;;;30.11;33.01;97583.66;10055177;29;20052;-81
2022/05/20 17:05:43;;;;;;;4.40;1.50;;;;;;;29.84;33.50;97565.97;10073728;29;20109;-79
2022/05/20 17:11:05;;;;;;;2.53;1.70;;;;;;;29.70;33.75;97560.38;10073796;29;20053;-79
2022/05/20 17:16:47;;;;;;;;;;;;;;;29.53;34.40;97542.59;10081298;29;20049;-79
2022/05/20 17:27:49;;;;;;;5.28;2.20;;;;;;;29.24;34.79;97524.91;10079792;29;20068;-79
2022/05/20 17:33:10;;;;;;;4.35;2.13;;;;;;;29.15;35.18;97514.94;10075419;29;20085;-79
2022/05/20 17:38:32;;;;;;;3.50;1.93;;;;;;;29.19;34.78;97499.81;10075037;29;20045;-79
2022/05/20 17:43:53;;;;;;;6.80;2.20;;;;;;;29.08;35.08;97502.78;10074731;29;20503;-82
2022/05/20 17:49:19;;;;;;;7.57;1.90;;;;;;;29.10;35.07;97542.28;10074570;29;20523;-79
2022/05/20 17:54:42;;;;;;;5.75;2.03;;;;;;;29.06;35.21;97539.44;10061378;29;20068;-80
2022/05/20 18:00:06;;;;;;;6.07;1.98;;;;;;;28.96;35.05;97528.06;10087183;29;20507;-78
2022/05/20 18:05:32;;;;;;;4.38;2.05;;;;;;;28.85;35.08;97518.75;10075580;29;20053;-78
2022/05/20 18:10:54;;;;;;;3.83;1.80;;;;;;;28.73;35.21;97507.38;10074060;29;20057;-78
2022/05/20 18:16:15;;;;;;;5.55;1.98;;;;;;;28.52;35.28;97473.09;10073787;29;20068;-79
2022/05/20 18:21:36;;;;;;;4.22;1.77;;;;;;;28.34;35.51;97475.38;10073178;29;20049;-79
2022/05/20 18:26:57;;;;;;;5.65;1.80;;;;;;;28.22;35.41;97465.41;10073117;29;20056;-77
2022/05/20 18:32:20;;;;;;;11.82;2.00;;;;;;;28.10;35.62;97476.25;10086133;29;20063;-76
2022/05/20 18:43:21;;;;;;;3.63;2.03;;;;;;;27.88;35.83;97460.56;10077599;29;20060;-76
2022/05/20 18:48:42;;;;;;;5.88;2.00;;;;;;;27.78;36.24;97449.16;10072295;29;20041;-76
2022/05/20 18:54:03;;;;;;;3.63;1.75;;;;;;;27.75;36.48;97447.03;10085288;29;20049;-77
2022/05/20 18:59:24;;;;;;;5.03;2.15;;;;;;;27.65;36.49;97442.78;10085073;29;20109;-77
2022/05/20 19:04:48;;;;;;;7.85;2.28;;;;;;;27.64;36.24;97446.34;10071867;29;20055;-79
2022/05/20 19:10:10;;;;;;;10.55;1.95;;;;;;;27.60;36.25;97541.69;10084777;29;20099;-78
2022/05/20 19:15:32;;;;;;;6.50;1.10;;;;;;;25.88;40.02;97660.22;10097780;29;20048;-74
2022/05/20 19:20:56;;;;;;;5.10;1.00;;;;;;;24.09;45.50;97632.09;10084827;29;20041;-73
2022/05/20 19:26:19;;;;;;;;;;;;;;;23.58;47.61;97637.09;10072694;29;20045;-74
2022/05/20 19:31:40;;;;;;;2.45;0.68;;;;;;;23.25;48.21;97627.31;10096562;29;19966;-75
2022/05/20 19:37:01;;;;;;;3.47;1.00;;;;;;;23.03;49.37;97602.06;10097331;29;20049;-75
2022/05/20 19:42:22;;;;;;;4.50;0.60;;;;;;;22.92;50.82;97584.13;10071094;29;20061;-75
2022/05/20 19:47:42;;;;;;;2.85;0.70;;;;;;;22.69;51.47;97551.00;10046965;29;20041;-78
2022/05/20 19:53:03;;;;;;;5.40;0.85;;;;;;;22.63;52.58;97528.84;10055683;29;20046;-76
2022/05/20 20:04:20;;;;;;;6.50;1.00;;;;;;;22.45;53.50;97463.84;10066112;29;20064;-78
2022/05/20 20:09:41;;;;;;;5.25;0.90;;;;;;;21.91;55.00;97446.53;10070785;29;20041;-77
2022/05/20 20:15:03;;;;;;;4.75;1.00;;;;;;;21.46;56.67;97427.94;10057663;29;20052;-77
2022/05/20 20:20:25;;;;;;;7.40;0.90;;;;;;;21.50;57.33;97467.75;10070515;29;20492;-75
2022/05/20 20:26:06;;;;;;;7.18;1.20;;;;;;;21.73;57.55;97478.16;10069744;29;20045;-77
2022/05/20 20:31:28;;;;;;;5.07;1.15;;;;;;;21.94;57.43;97490.63;10061607;29;20049;-75
2022/05/20 20:36:49;;;;;;;3.65;0.80;;;;;;;22.03;57.26;97486.53;10056421;29;20041;-77
2022/05/20 20:42:13;;;;;;;4.28;0.90;;;;;;;22.07;57.12;97474.56;10069440;29;20474;-77
2022/05/20 20:47:54;;;;;;;3.15;0.80;;;;;;;21.98;56.89;97468.69;10093853;29;20052;-74
2022/05/20 20:53:20;;;;;;;3.70;0.98;;;;;;;21.93;56.75;97467.19;10064266;29;20093;-74
2022/05/20 20:58:42;;;;;;;6.45;1.58;;;;;;;21.73;57.12;97471.75;10077485;29;20045;-75
2022/05/20 21:04:02;;;;;;;5.35;1.58;;;;;;;21.51;57.30;97477.72;10077485;29;20121;-74
2022/05/20 21:09:23;;;;;;;6.15;1.05;;;;;;;21.37;57.93;97473.19;10063678;29;20049;-74
2022/05/20 21:14:43;;;;;;;6.72;1.63;;;;;;;21.30;58.08;97468.78;10063585;29;20408;-75
2022/05/20 21:20:04;;;;;;;4.85;1.17;;;;;;;21.20;58.06;97482.00;10076327;29;20496;-75
2022/05/20 21:25:25;;;;;;;6.57;1.27;;;;;;;21.22;57.89;97484.88;10063242;29;20403;-74
2022/05/20 21:30:49;;;;;;;5.88;1.20;;;;;;;21.17;58.34;97481.25;10089343;29;20056;-74
2022/05/20 21:36:10;;;;;;;5.55;1.38;;;;;;;21.18;58.59;97482.69;10075790;29;20408;-75
2022/05/20 21:41:30;;;;;;;5.30;1.20;;;;;;;21.31;58.31;97492.91;10075628;29;20057;-74
2022/05/20 21:46:57;;;;;;;5.70;1.00;;;;;;;21.36;58.14;97500.13;10076101;29;20100;-74
2022/05/20 21:52:18;;;;;;;4.95;1.27;;;;;;;21.35;58.10;97501.53;10063853;29;20060;-74
2022/05/20 21:57:39;;;;;;;9.90;1.25;;;;;;;21.37;57.91;97498.00;10061418;29;20056;-75
2022/05/20 22:09:01;;;;;;;3.90;0.90;;;;;;;21.41;57.24;97535.72;10091394;29;20068;-74
2022/05/20 22:14:21;;;;;;;5.43;1.27;;;;;;;21.21;57.67;97540.19;10062093;29;20430;-74
2022/05/20 22:19:42;;;;;;;2.75;0.90;;;;;;;21.18;57.69;97530.22;10074100;29;20104;-76
2022/05/20 22:25:04;;;;;;;7.40;1.13;;;;;;;21.26;57.46;97542.50;10074272;29;20120;-74
2022/05/20 22:30:24;;;;;;;6.78;1.30;;;;;;;21.29;57.36;97543.97;10086670;29;20041;-74
2022/05/20 22:35:45;;;;;;;5.15;0.98;;;;;;;21.25;57.58;97543.88;10061120;29;20048;-74
2022/05/20 22:41:06;;;;;;;5.43;1.00;;;;;;;21.27;57.52;97548.91;10086341;29;20057;-75
2022/05/20 22:46:27;;;;;;;4.40;0.95;;;;;;;21.38;56.87;97537.06;10060195;29;20481;-74
2022/05/20 22:51:47;;;;;;;4.60;1.17;;;;;;;21.40;56.60;97544.91;10072682;29;20049;-74
2022/05/20 22:57:08;;;;;;;7.97;1.38;;;;;;;21.45;56.34;97534.38;10072677;29;20057;-74
2022/05/20 23:02:28;;;;;;;4.60;1.27;;;;;;;21.45;56.06;97540.78;10072518;29;20080;-74
2022/05/20 23:07:50;;;;;;;7.53;1.52;;;;;;;21.31;55.65;97509.22;10059889;29;20052;-75
2022/05/20 23:13:10;;;;;;;7.00;1.63;;;;;;;21.29;55.97;97492.16;10072687;29;20052;-74
2022/05/20 23:18:31;;;;;;;5.43;1.38;;;;;;;21.30;55.91;97500.00;10071848;29;20057;-74
2022/05/20 23:23:52;;;;;;;4.18;1.23;;;;;;;21.37;55.71;97501.56;10059376;29;20483;-74
2022/05/20 23:29:12;;;;;;;3.70;1.10;;;;;;;21.31;55.95;97512.78;10058946;29;20045;-74
2022/05/20 23:34:33;;;;;;;7.80;1.50;;;;;;;21.22;55.80;97511.16;10084427;29;20500;-74
2022/05/20 23:39:53;;;;;;;5.60;1.88;;;;;;;21.23;55.84;97509.03;10058430;29;20476;-74
2022/05/20 23:45:14;;;;;;;5.05;1.70;;;;;;;21.14;56.05;97508.16;10084543;29;20049;-74
2022/05/20 23:50:35;;;;;;;7.68;1.88;;;;;;;21.02;56.35;97502.19;10071022;29;20056;-75
